createdAt,value
2019-03-30T00:00:10.141Z,64.25
2019-03-30T00:02:37.911Z,64.24
2019-03-30T00:05:06.949Z,64.19
2019-03-30T00:07:35.466Z,64.10
2019-03-30T00:10:05.690Z,64.29
2019-03-30T00:12:34.284Z,64.15
2019-03-30T00:15:03.054Z,66.87
2019-03-30T00:17:31.562Z,67.10
2019-03-30T00:20:00.052Z,67.37
2019-03-30T00:22:28.568Z,65.96
2019-03-30T00:24:57.059Z,65.11
2019-03-30T00:27:25.778Z,64.55
2019-03-30T00:29:54.259Z,64.11
2019-03-30T00:32:22.746Z,64.02
2019-03-30T00:34:51.268Z,63.80
2019-03-30T00:37:19.766Z,63.47
2019-03-30T00:39:48.279Z,63.65
2019-03-30T00:42:16.818Z,65.58
2019-03-30T00:44:45.395Z,66.06
2019-03-30T00:47:13.900Z,65.81
2019-03-30T00:49:48.832Z,64.80
2019-03-30T00:52:12.643Z,64.29
2019-03-30T00:54:41.158Z,64.15
2019-03-30T00:57:09.672Z,63.89
2019-03-30T00:59:38.173Z,63.84
2019-03-30T01:02:06.742Z,63.63
2019-03-30T01:04:35.227Z,63.70
2019-03-30T01:07:03.794Z,63.89
2019-03-30T01:09:32.314Z,63.71
2019-03-30T01:12:00.811Z,63.62
2019-03-30T01:14:29.322Z,64.10
2019-03-30T01:16:57.828Z,64.22
2019-03-30T01:19:26.356Z,63.89
2019-03-30T01:21:56.334Z,64.41
2019-03-30T01:24:25.025Z,64.27
2019-03-30T01:26:53.511Z,64.27
2019-03-30T01:29:22.035Z,64.57
2019-03-30T01:31:50.524Z,64.12
2019-03-30T01:34:19.119Z,63.72
2019-03-30T01:36:47.664Z,63.39
2019-03-30T01:39:16.154Z,64.58
2019-03-30T01:41:44.642Z,64.99
2019-03-30T01:44:13.166Z,64.87
2019-03-30T01:46:41.658Z,64.83
2019-03-30T01:49:10.172Z,64.54
2019-03-30T01:51:38.666Z,64.47
2019-03-30T01:54:07.158Z,64.29
2019-03-30T01:56:35.660Z,64.21
2019-03-30T01:59:04.303Z,64.22
2019-03-30T02:01:32.902Z,64.66
2019-03-30T02:04:01.591Z,64.38
2019-03-30T02:06:30.083Z,64.99
2019-03-30T02:08:58.645Z,64.68
2019-03-30T02:11:27.166Z,64.64
2019-03-30T02:13:55.663Z,64.82
2019-03-30T02:16:24.231Z,64.97
2019-03-30T02:18:52.755Z,64.67
2019-03-30T02:21:21.246Z,64.17
2019-03-30T02:23:49.748Z,64.00
2019-03-30T02:26:18.272Z,63.99
2019-03-30T02:28:46.758Z,65.47
2019-03-30T02:31:15.348Z,67.29
2019-03-30T02:33:43.836Z,66.69
2019-03-30T02:36:12.373Z,65.85
2019-03-30T02:38:40.838Z,64.99
2019-03-30T02:41:09.363Z,64.83
2019-03-30T02:43:37.879Z,64.31
2019-03-30T02:46:06.364Z,63.87
2019-03-30T02:48:34.884Z,63.83
2019-03-30T02:51:03.429Z,64.53
2019-03-30T02:53:31.976Z,64.59
2019-03-30T02:56:00.555Z,64.59
2019-03-30T02:58:29.072Z,64.40
2019-03-30T03:00:57.550Z,64.00
2019-03-30T03:03:26.048Z,63.81
2019-03-30T03:05:54.540Z,64.03
2019-03-30T03:08:23.226Z,64.66
2019-03-30T03:10:51.737Z,64.44
2019-03-30T03:13:20.426Z,64.71
2019-03-30T03:15:48.948Z,64.75
2019-03-30T03:18:17.447Z,64.19
2019-03-30T03:20:46.029Z,64.08
2019-03-30T03:23:14.513Z,64.12
2019-03-30T03:25:43.050Z,64.38
2019-03-30T03:28:11.549Z,66.54
2019-03-30T03:30:40.070Z,66.46
2019-03-30T03:33:08.710Z,66.37
2019-03-30T03:35:37.280Z,69.63
2019-03-30T03:38:05.821Z,70.48
2019-03-30T03:40:34.298Z,68.91
2019-03-30T03:43:02.820Z,66.89
2019-03-30T03:45:31.332Z,66.21
2019-03-30T03:47:59.902Z,65.80
2019-03-30T03:50:37.051Z,65.66
2019-03-30T03:53:05.795Z,65.69
2019-03-30T03:55:35.355Z,65.86
2019-03-30T03:58:05.277Z,65.44
2019-03-30T04:00:35.532Z,65.57
2019-03-30T04:03:05.850Z,65.55
2019-03-30T04:05:36.914Z,65.77
2019-03-30T04:08:08.717Z,65.77
2019-03-30T04:10:38.703Z,65.18
2019-03-30T04:13:08.921Z,64.64
2019-03-30T04:15:37.517Z,64.85
2019-03-30T04:18:06.009Z,65.47
2019-03-30T04:20:34.502Z,65.48
2019-03-30T04:23:03.014Z,65.30
2019-03-30T04:25:31.525Z,65.84
2019-03-30T04:28:00.086Z,65.47
2019-03-30T04:30:28.658Z,65.22
2019-03-30T04:32:57.129Z,65.09
2019-03-30T04:35:25.622Z,64.96
2019-03-30T04:37:54.139Z,64.96
2019-03-30T04:40:22.638Z,66.38
2019-03-30T04:42:51.164Z,66.58
2019-03-30T04:45:19.655Z,66.52
2019-03-30T04:47:48.176Z,66.40
2019-03-30T04:50:16.671Z,66.04
2019-03-30T04:52:45.162Z,65.82
2019-03-30T04:55:13.673Z,65.91
2019-03-30T04:57:42.161Z,65.98
2019-03-30T05:00:10.912Z,65.58
2019-03-30T05:02:39.420Z,66.14
2019-03-30T05:05:08.764Z,66.08
2019-03-30T05:07:37.263Z,67.21
2019-03-30T05:10:09.009Z,68.62
2019-03-30T05:12:36.755Z,68.28
2019-03-30T05:15:06.456Z,68.19
2019-03-30T05:17:46.971Z,70.43
2019-03-30T05:20:06.887Z,72.84
2019-03-30T05:22:35.378Z,73.95
2019-03-30T05:25:04.733Z,74.09
2019-03-30T05:27:33.222Z,74.94
2019-03-30T05:30:01.751Z,73.78
2019-03-30T05:32:30.241Z,73.04
2019-03-30T05:34:58.758Z,70.93
2019-03-30T05:37:27.304Z,69.46
2019-03-30T05:39:55.792Z,70.39
2019-03-30T05:42:24.310Z,70.89
2019-03-30T05:44:52.799Z,71.22
2019-03-30T05:47:21.464Z,71.94
2019-03-30T05:49:49.951Z,71.18
2019-03-30T05:52:26.500Z,69.42
2019-03-30T05:54:48.663Z,68.99
2019-03-30T05:57:17.151Z,68.64
2019-03-30T05:59:45.655Z,68.79
2019-03-30T06:02:14.141Z,68.52
2019-03-30T06:04:42.710Z,68.36
2019-03-30T06:07:11.240Z,68.03
2019-03-30T06:09:39.716Z,68.42
2019-03-30T06:12:08.276Z,68.20
2019-03-30T06:14:36.845Z,67.44
2019-03-30T06:17:05.334Z,66.38
2019-03-30T06:19:33.831Z,66.04
2019-03-30T06:22:03.346Z,66.18
2019-03-30T06:24:31.804Z,66.96
2019-03-30T06:27:00.387Z,66.43
2019-03-30T06:29:28.880Z,66.05
2019-03-30T06:31:57.400Z,65.32
2019-03-30T06:34:25.913Z,64.70
2019-03-30T06:36:54.464Z,64.22
2019-03-30T06:39:22.982Z,64.40
2019-03-30T06:41:51.477Z,64.35
2019-03-30T06:44:19.974Z,63.99
2019-03-30T06:46:48.505Z,63.48
2019-03-30T06:49:16.998Z,63.34
2019-03-30T06:51:45.476Z,64.30
2019-03-30T06:54:14.928Z,63.52
2019-03-30T06:56:45.097Z,63.15
2019-03-30T06:59:13.588Z,63.21
2019-03-30T07:01:42.267Z,63.63
2019-03-30T07:04:11.330Z,63.26
2019-03-30T07:06:40.378Z,62.36
2019-03-30T07:09:08.872Z,62.38
2019-03-30T07:11:40.405Z,63.25
2019-03-30T07:14:09.090Z,62.22
2019-03-30T07:16:39.753Z,62.08
2019-03-30T07:19:08.271Z,61.99
2019-03-30T07:21:36.792Z,61.56
2019-03-30T07:24:05.282Z,60.28
2019-03-30T07:26:33.800Z,59.66
2019-03-30T07:29:02.615Z,60.26
2019-03-30T07:31:31.127Z,60.96
2019-03-30T07:33:59.647Z,62.90
2019-03-30T07:36:28.131Z,64.12
2019-03-30T07:38:56.629Z,63.05
2019-03-30T07:41:25.186Z,63.27
2019-03-30T07:43:55.233Z,61.83
2019-03-30T07:46:23.730Z,61.32
2019-03-30T07:48:52.242Z,59.49
2019-03-30T07:51:20.748Z,57.80
2019-03-30T07:53:49.301Z,57.16
2019-03-30T07:56:17.786Z,58.68
2019-03-30T07:58:46.312Z,58.51
2019-03-30T08:01:14.846Z,56.08
2019-03-30T08:03:43.352Z,57.03
2019-03-30T08:06:11.867Z,55.53
2019-03-30T08:08:40.355Z,54.51
2019-03-30T08:11:09.028Z,53.74
2019-03-30T08:13:37.548Z,52.92
2019-03-30T08:16:06.049Z,51.82
2019-03-30T08:18:34.541Z,52.61
2019-03-30T08:21:03.061Z,55.35
2019-03-30T08:23:40.301Z,54.34
2019-03-30T08:26:01.780Z,51.78
2019-03-30T08:28:30.266Z,50.62
2019-03-30T08:30:58.781Z,53.33
2019-03-30T08:33:27.273Z,55.33
2019-03-30T08:35:55.793Z,54.30
2019-03-30T08:38:24.288Z,52.70
2019-03-30T08:40:52.845Z,49.58
2019-03-30T08:43:21.341Z,47.80
2019-03-30T08:45:49.814Z,48.03
2019-03-30T08:48:18.322Z,44.92
2019-03-30T08:50:46.816Z,44.43
2019-03-30T08:53:15.306Z,44.13
2019-03-30T08:55:43.794Z,43.67
2019-03-30T08:58:12.309Z,43.96
2019-03-30T09:00:44.173Z,42.08
2019-03-30T09:03:12.744Z,40.92
2019-03-30T09:05:41.231Z,42.57
2019-03-30T09:08:09.794Z,42.02
2019-03-30T09:10:38.447Z,45.02
2019-03-30T09:13:06.966Z,48.08
2019-03-30T09:15:35.515Z,51.39
2019-03-30T09:18:04.257Z,49.94
2019-03-30T09:20:32.748Z,46.68
2019-03-30T09:23:01.303Z,42.38
2019-03-30T09:25:29.802Z,40.86
2019-03-30T09:27:58.282Z,40.88
2019-03-30T09:30:26.848Z,39.39
2019-03-30T09:32:55.437Z,39.93
2019-03-30T09:35:23.923Z,41.18
2019-03-30T09:37:52.449Z,39.48
2019-03-30T09:40:21.003Z,38.60
2019-03-30T09:42:49.559Z,37.06
2019-03-30T09:45:18.033Z,38.50
2019-03-30T09:47:46.598Z,37.49
2019-03-30T09:50:15.460Z,42.04
2019-03-30T09:52:43.947Z,43.51
2019-03-30T09:55:12.711Z,45.25
2019-03-30T09:57:41.229Z,43.56
2019-03-30T10:00:09.949Z,42.89
2019-03-30T10:02:38.475Z,41.28
2019-03-30T10:05:07.431Z,41.81
2019-03-30T10:07:36.283Z,39.96
2019-03-30T10:10:06.310Z,39.53
2019-03-30T10:12:34.824Z,41.35
2019-03-30T10:15:04.179Z,42.69
2019-03-30T10:17:32.692Z,40.47
2019-03-30T10:20:04.837Z,38.28
2019-03-30T10:22:31.476Z,40.08
2019-03-30T10:24:59.975Z,40.55
2019-03-30T10:27:28.455Z,42.88
2019-03-30T10:29:56.972Z,41.04
2019-03-30T10:32:25.497Z,37.76
2019-03-30T10:34:53.989Z,39.08
2019-03-30T10:37:22.475Z,36.01
2019-03-30T10:39:51.062Z,35.01
2019-03-30T10:42:19.620Z,35.45
2019-03-30T10:44:48.229Z,33.84
2019-03-30T10:47:16.714Z,34.88
2019-03-30T10:49:45.208Z,34.09
2019-03-30T10:52:13.686Z,32.61
2019-03-30T10:54:52.681Z,33.00
2019-03-30T10:57:12.448Z,32.72
2019-03-30T10:59:40.965Z,34.23
2019-03-30T11:02:09.536Z,34.23
2019-03-30T11:04:38.081Z,34.36
2019-03-30T11:07:06.623Z,32.41
2019-03-30T11:09:35.103Z,32.71
2019-03-30T11:12:04.374Z,33.21
2019-03-30T11:14:32.901Z,30.36
2019-03-30T11:17:01.471Z,33.55
2019-03-30T11:19:29.964Z,32.85
2019-03-30T11:21:58.472Z,30.86
2019-03-30T11:24:27.163Z,30.86
2019-03-30T11:26:55.642Z,29.21
2019-03-30T11:29:24.171Z,34.02
2019-03-30T11:31:52.678Z,34.02
2019-03-30T11:34:21.284Z,36.52
2019-03-30T11:36:49.802Z,33.94
2019-03-30T11:39:18.304Z,32.10
2019-03-30T11:41:46.829Z,31.00
2019-03-30T11:44:15.324Z,30.34
2019-03-30T11:46:43.810Z,30.40
2019-03-30T11:49:12.318Z,29.47
2019-03-30T11:51:40.803Z,29.47
2019-03-30T11:54:09.390Z,30.94
2019-03-30T11:56:37.910Z,29.09
2019-03-30T11:59:06.398Z,26.32
2019-03-30T12:01:34.895Z,25.89
2019-03-30T12:04:03.378Z,27.62
2019-03-30T12:06:31.901Z,27.58
2019-03-30T12:09:00.413Z,27.01
2019-03-30T12:11:29.283Z,26.34
2019-03-30T12:13:57.802Z,27.46
2019-03-30T12:16:26.288Z,27.58
2019-03-30T12:18:54.785Z,30.27
2019-03-30T12:21:23.301Z,30.27
2019-03-30T12:23:51.781Z,30.67
2019-03-30T12:26:20.305Z,29.35
2019-03-30T12:28:48.798Z,29.35
2019-03-30T12:31:17.287Z,29.57
2019-03-30T12:33:45.911Z,29.76
2019-03-30T12:36:14.409Z,28.46
2019-03-30T12:38:42.939Z,30.78
2019-03-30T12:41:11.459Z,29.78
2019-03-30T12:43:39.939Z,28.33
2019-03-30T12:46:08.596Z,28.75
2019-03-30T12:48:37.142Z,27.94
2019-03-30T12:51:05.648Z,28.55
2019-03-30T12:53:34.145Z,27.90
2019-03-30T12:56:02.635Z,26.58
2019-03-30T12:58:31.205Z,29.11
2019-03-30T13:00:59.728Z,28.50
2019-03-30T13:03:28.222Z,29.15
2019-03-30T13:05:56.728Z,26.90
2019-03-30T13:08:25.244Z,26.06
2019-03-30T13:10:53.734Z,24.95
2019-03-30T13:13:22.255Z,24.54
2019-03-30T13:15:50.740Z,24.54
2019-03-30T13:18:19.227Z,23.79
2019-03-30T13:20:47.742Z,23.78
2019-03-30T13:23:16.259Z,25.56
2019-03-30T13:25:44.763Z,26.26
2019-03-30T13:28:13.331Z,25.07
2019-03-30T13:30:41.900Z,22.00
2019-03-30T13:33:10.452Z,22.00
2019-03-30T13:35:38.970Z,20.96
2019-03-30T13:38:07.489Z,21.64
2019-03-30T13:40:36.149Z,21.94
2019-03-30T13:43:04.738Z,21.94
2019-03-30T13:45:33.323Z,21.81
2019-03-30T13:48:01.808Z,21.88
2019-03-30T13:50:31.120Z,22.39
2019-03-30T13:52:59.785Z,22.71
2019-03-30T13:55:28.298Z,22.71
2019-03-30T13:57:56.811Z,24.64
2019-03-30T14:00:25.539Z,24.96
2019-03-30T14:02:54.057Z,22.51
2019-03-30T14:05:22.622Z,22.18
2019-03-30T14:07:51.153Z,23.61
2019-03-30T14:10:19.771Z,25.02
2019-03-30T14:12:48.270Z,25.06
2019-03-30T14:15:16.871Z,23.74
2019-03-30T14:17:45.360Z,22.33
2019-03-30T14:20:13.990Z,22.11
2019-03-30T14:22:42.513Z,22.51
2019-03-30T14:25:11.063Z,23.87
2019-03-30T14:27:39.585Z,23.87
2019-03-30T14:30:11.082Z,23.67
2019-03-30T14:32:39.612Z,22.90
2019-03-30T14:35:08.545Z,23.56
2019-03-30T14:37:37.027Z,23.45
2019-03-30T14:40:07.985Z,24.22
2019-03-30T14:42:36.472Z,24.72
2019-03-30T14:45:07.000Z,21.30
2019-03-30T14:47:35.514Z,23.39
2019-03-30T14:50:05.984Z,22.22
2019-03-30T14:52:34.505Z,22.70
2019-03-30T14:55:02.995Z,24.27
2019-03-30T14:57:31.582Z,24.43
2019-03-30T15:00:00.098Z,24.23
2019-03-30T15:02:28.854Z,23.31
2019-03-30T15:05:00.659Z,23.74
2019-03-30T15:07:27.597Z,24.81
2019-03-30T15:09:56.077Z,23.99
2019-03-30T15:12:24.668Z,23.89
2019-03-30T15:14:53.149Z,23.20
2019-03-30T15:17:21.725Z,23.10
2019-03-30T15:19:50.241Z,24.04
2019-03-30T15:22:18.742Z,23.27
2019-03-30T15:24:47.322Z,22.51
2019-03-30T15:27:15.825Z,22.12
2019-03-30T15:29:45.655Z,21.87
2019-03-30T15:32:14.300Z,21.85
2019-03-30T15:34:42.881Z,21.31
2019-03-30T15:37:11.380Z,21.41
2019-03-30T15:39:39.875Z,21.27
2019-03-30T15:42:08.370Z,22.25
2019-03-30T15:44:36.855Z,22.22
2019-03-30T15:47:05.478Z,22.23
2019-03-30T15:49:33.970Z,22.53
2019-03-30T15:52:13.274Z,22.55
2019-03-30T15:54:33.070Z,22.77
2019-03-30T15:57:13.459Z,22.62
2019-03-30T15:59:31.876Z,23.82
2019-03-30T16:02:00.438Z,23.06
2019-03-30T16:04:28.960Z,23.19
2019-03-30T16:06:58.613Z,23.16
2019-03-30T16:09:27.112Z,22.80
2019-03-30T16:11:55.662Z,22.94
2019-03-30T16:14:24.114Z,23.65
2019-03-30T16:16:52.683Z,23.67
2019-03-30T16:19:21.184Z,24.05
2019-03-30T16:21:49.888Z,23.77
2019-03-30T16:24:18.620Z,25.13
2019-03-30T16:26:47.144Z,25.18
2019-03-30T16:29:15.629Z,25.63
2019-03-30T16:31:44.131Z,25.55
2019-03-30T16:34:12.797Z,25.61
2019-03-30T16:36:41.294Z,25.80
2019-03-30T16:39:09.889Z,25.29
2019-03-30T16:41:38.386Z,25.56
2019-03-30T16:44:06.890Z,26.07
2019-03-30T16:46:35.411Z,26.59
2019-03-30T16:49:04.814Z,26.36
2019-03-30T16:51:33.296Z,26.63
2019-03-30T16:54:01.797Z,27.05
2019-03-30T16:56:30.324Z,26.84
2019-03-30T16:58:58.889Z,27.54
2019-03-30T17:01:27.416Z,27.92
2019-03-30T17:03:55.905Z,27.89
2019-03-30T17:06:24.429Z,28.35
2019-03-30T17:08:52.921Z,28.45
2019-03-30T17:11:21.424Z,28.40
2019-03-30T17:13:49.932Z,29.26
2019-03-30T17:16:18.461Z,28.97
2019-03-30T17:18:47.005Z,29.35
2019-03-30T17:21:15.499Z,28.97
2019-03-30T17:23:44.094Z,29.50
2019-03-30T17:26:12.585Z,30.63
2019-03-30T17:28:41.096Z,30.06
2019-03-30T17:31:09.814Z,30.16
2019-03-30T17:33:38.377Z,30.24
2019-03-30T17:36:06.867Z,30.00
2019-03-30T17:38:35.386Z,29.92
2019-03-30T17:41:05.419Z,30.62
2019-03-30T17:43:34.082Z,30.68
2019-03-30T17:46:02.667Z,31.33
2019-03-30T17:48:31.261Z,31.04
2019-03-30T17:50:59.751Z,30.03
2019-03-30T17:53:28.237Z,30.86
2019-03-30T17:55:56.743Z,29.97
2019-03-30T17:58:25.235Z,30.10
2019-03-30T18:00:53.755Z,28.99
2019-03-30T18:03:23.222Z,31.35
2019-03-30T18:05:51.728Z,31.76
2019-03-30T18:08:20.800Z,32.63
2019-03-30T18:10:49.314Z,31.87
2019-03-30T18:13:17.845Z,32.86
2019-03-30T18:15:46.372Z,33.32
2019-03-30T18:18:14.862Z,32.79
2019-03-30T18:20:43.387Z,34.33
2019-03-30T18:23:11.879Z,34.49
2019-03-30T18:25:40.410Z,35.36
2019-03-30T18:28:08.912Z,35.85
2019-03-30T18:30:39.640Z,37.33
2019-03-30T18:33:08.904Z,36.56
2019-03-30T18:35:39.499Z,36.44
2019-03-30T18:38:08.266Z,36.26
2019-03-30T18:40:36.828Z,34.68
2019-03-30T18:43:05.356Z,34.49
2019-03-30T18:45:33.913Z,36.77
2019-03-30T18:48:12.699Z,37.03
2019-03-30T18:50:43.249Z,39.01
2019-03-30T18:53:12.208Z,37.96
2019-03-30T18:55:40.700Z,39.12
2019-03-30T18:58:09.229Z,37.11
2019-03-30T19:00:37.812Z,37.32
2019-03-30T19:03:06.576Z,38.36
2019-03-30T19:05:35.445Z,38.19
2019-03-30T19:08:04.593Z,37.10
2019-03-30T19:10:33.175Z,36.91
2019-03-30T19:13:01.815Z,37.75
2019-03-30T19:15:30.322Z,37.66
2019-03-30T19:17:58.837Z,37.60
2019-03-30T19:20:27.363Z,37.66
2019-03-30T19:22:55.896Z,38.34
2019-03-30T19:25:24.392Z,39.46
2019-03-30T19:27:52.936Z,38.34
2019-03-30T19:30:21.559Z,38.83
2019-03-30T19:32:50.083Z,39.26
2019-03-30T19:35:18.654Z,40.07
2019-03-30T19:37:47.155Z,39.51
2019-03-30T19:40:15.715Z,39.01
2019-03-30T19:42:44.220Z,38.62
2019-03-30T19:45:13.019Z,39.17
2019-03-30T19:47:41.502Z,38.26
2019-03-30T19:50:10.723Z,39.24
2019-03-30T19:52:40.483Z,38.64
2019-03-30T19:55:09.359Z,38.85
2019-03-30T19:57:37.948Z,38.65
2019-03-30T20:00:14.436Z,38.41
2019-03-30T20:02:42.989Z,37.79
2019-03-30T20:05:11.914Z,37.46
2019-03-30T20:07:40.412Z,37.25
2019-03-30T20:10:09.468Z,37.82
2019-03-30T20:12:38.830Z,36.87
2019-03-30T20:15:08.686Z,37.21
2019-03-30T20:17:37.212Z,37.14
2019-03-30T20:20:07.162Z,37.36
2019-03-30T20:22:35.679Z,37.43
2019-03-30T20:25:06.610Z,37.38
2019-03-30T20:27:35.108Z,37.34
2019-03-30T20:30:05.688Z,37.42
2019-03-30T20:32:34.174Z,37.61
2019-03-30T20:35:02.773Z,37.67
2019-03-30T20:37:31.268Z,37.84
2019-03-30T20:39:59.786Z,38.13
2019-03-30T20:42:28.282Z,37.98
2019-03-30T20:44:56.808Z,38.30
2019-03-30T20:47:25.336Z,38.54
2019-03-30T20:49:53.826Z,38.39
2019-03-30T20:52:22.334Z,38.62
2019-03-30T20:54:50.827Z,38.97
2019-03-30T20:57:19.324Z,39.14
2019-03-30T20:59:47.847Z,38.87
2019-03-30T21:02:16.408Z,39.12
2019-03-30T21:04:44.929Z,39.67
2019-03-30T21:07:15.062Z,39.91
2019-03-30T21:09:43.567Z,39.83
2019-03-30T21:12:12.064Z,39.94
2019-03-30T21:14:40.573Z,40.18
2019-03-30T21:17:09.074Z,40.41
2019-03-30T21:19:37.594Z,40.79
2019-03-30T21:22:06.091Z,41.14
2019-03-30T21:24:34.614Z,41.21
2019-03-30T21:27:03.098Z,41.83
2019-03-30T21:29:31.597Z,42.06
2019-03-30T21:32:00.092Z,42.13
2019-03-30T21:34:28.615Z,42.30
2019-03-30T21:36:57.216Z,42.58
2019-03-30T21:39:25.700Z,43.06
2019-03-30T21:41:54.220Z,43.13
2019-03-30T21:44:22.851Z,43.06
2019-03-30T21:46:51.382Z,43.80
2019-03-30T21:49:19.863Z,44.38
2019-03-30T21:51:48.384Z,44.18
2019-03-30T21:54:16.876Z,44.17
2019-03-30T21:56:45.400Z,44.49
2019-03-30T21:59:13.918Z,43.84
2019-03-30T22:01:43.439Z,43.71
2019-03-30T22:04:11.988Z,43.65
2019-03-30T22:06:40.719Z,43.67
2019-03-30T22:09:09.448Z,43.78
2019-03-30T22:11:38.019Z,43.33
2019-03-30T22:14:08.601Z,43.28
2019-03-30T22:16:37.117Z,43.42
2019-03-30T22:19:05.686Z,43.40
2019-03-30T22:21:34.246Z,43.58
2019-03-30T22:24:02.729Z,43.22
2019-03-30T22:26:31.248Z,43.14
2019-03-30T22:28:59.739Z,43.55
2019-03-30T22:31:28.264Z,43.22
2019-03-30T22:33:56.752Z,43.28
2019-03-30T22:36:25.272Z,43.42
2019-03-30T22:38:53.773Z,43.71
2019-03-30T22:41:22.316Z,43.64
2019-03-30T22:43:50.788Z,43.89
2019-03-30T22:46:19.369Z,44.02
2019-03-30T22:48:47.857Z,44.14
2019-03-30T22:51:16.381Z,44.36
2019-03-30T22:53:44.866Z,44.33
2019-03-30T22:56:13.389Z,44.83
2019-03-30T22:58:41.909Z,44.89
2019-03-30T23:01:12.105Z,45.12
2019-03-30T23:03:40.764Z,45.71
2019-03-30T23:06:09.467Z,45.45
2019-03-30T23:08:37.941Z,45.46
2019-03-30T23:11:06.445Z,45.68
2019-03-30T23:13:34.923Z,46.04
2019-03-30T23:16:03.422Z,46.17
2019-03-30T23:18:31.905Z,46.36
2019-03-30T23:21:00.389Z,47.60
2019-03-30T23:23:28.900Z,49.51
2019-03-30T23:25:57.386Z,49.98
2019-03-30T23:28:25.863Z,52.01
2019-03-30T23:30:54.907Z,52.14
2019-03-30T23:33:24.423Z,51.50
2019-03-30T23:35:52.996Z,51.75
2019-03-30T23:38:21.480Z,51.55
2019-03-30T23:40:49.957Z,50.08
2019-03-30T23:43:18.475Z,49.36
2019-03-30T23:45:46.967Z,49.02
2019-03-30T23:48:15.443Z,48.88
2019-03-30T23:50:44.219Z,48.88
2019-03-30T23:53:12.689Z,48.56
2019-03-30T23:55:41.182Z,48.70
2019-03-30T23:58:09.669Z,48.39
